SDG002 LICR-LICJ
Flight info
| Callsign | SDG002 |
|---|---|
| Flight time | N/A |
| Altitude | 1000 |
| Route | TREMESTIERI CAPOMILAZZO VULCANO LIPARI SALINA POLLARA FILICUDI ALICUDI CEFALU MONDELLO NORDCAPOGALLO NORDOVEST TRAPPETO |
| Aircraft | C172/L-S/C |
Departure
| Time | 2026-04-22 19:10 |
|---|---|
| Airport | Reggio Calabria Airport (LICR) |
Arrival
| Time | N/A |
|---|---|
| Airport | Falcone–Borsellino Airport (LICJ) |
| Time | Latitude | Longitude | Altitude | Speed | Heading |
|---|---|---|---|---|---|
| 2026-04-22 18:54 | 38.07408 | 15.65278 | 43 ft | 0 kts | 112° |
| 2026-04-22 19:07 | 38.07407 | 15.65282 | 44 ft | 4 kts | 110° |
| 2026-04-22 19:07 | 38.07370 | 15.65311 | 41 ft | 0 kts | 230° |
| 2026-04-22 19:08 | 38.07332 | 15.65217 | 32 ft | 18 kts | 244° |
| 2026-04-22 19:08 | 38.07305 | 15.65146 | 25 ft | 0 kts | 243° |
| 2026-04-22 19:09 | 38.07297 | 15.65127 | 24 ft | 9 kts | 238° |
| 2026-04-22 19:09 | 38.07359 | 15.65002 | 22 ft | 37 kts | 332° |
| 2026-04-22 19:09 | 38.07664 | 15.64800 | 87 ft | 58 kts | 332° |
| 2026-04-22 19:09 | 38.08048 | 15.64529 | 263 ft | 57 kts | 332° |
| 2026-04-22 19:10 | 38.08351 | 15.64262 | 451 ft | 50 kts | 314° |
| 2026-04-22 19:10 | 38.08511 | 15.63870 | 583 ft | 55 kts | 294° |
| 2026-04-22 19:10 | 38.08744 | 15.63435 | 702 ft | 65 kts | 308° |
| 2026-04-22 19:10 | 38.09031 | 15.62945 | 815 ft | 76 kts | 306° |
| 2026-04-22 19:11 | 38.09360 | 15.62329 | 931 ft | 86 kts | 303° |
| 2026-04-22 19:11 | 38.09579 | 15.61892 | 1007 ft | 91 kts | 302° |
| 2026-04-22 19:11 | 38.09740 | 15.61558 | 1107 ft | 91 kts | 301° |
| 2026-04-22 19:11 | 38.10065 | 15.60857 | 1308 ft | 94 kts | 300° |
| 2026-04-22 19:12 | 38.10383 | 15.60151 | 1504 ft | 96 kts | 300° |
| 2026-04-22 19:12 | 38.10615 | 15.59618 | 1649 ft | 97 kts | 302° |
| 2026-04-22 19:12 | 38.10948 | 15.58863 | 1850 ft | 98 kts | 302° |
| 2026-04-22 19:12 | 38.11279 | 15.58106 | 2050 ft | 99 kts | 302° |
| 2026-04-22 19:13 | 38.11550 | 15.57479 | 2215 ft | 99 kts | 302° |
| 2026-04-22 19:13 | 38.11882 | 15.56711 | 2416 ft | 99 kts | 302° |
| 2026-04-22 19:13 | 38.12217 | 15.55938 | 2619 ft | 100 kts | 302° |
| 2026-04-22 19:13 | 38.12550 | 15.55167 | 2820 ft | 99 kts | 303° |
| 2026-04-22 19:14 | 38.12880 | 15.54402 | 3021 ft | 99 kts | 303° |
| 2026-04-22 19:14 | 38.13210 | 15.53628 | 3225 ft | 99 kts | 302° |
| 2026-04-22 19:14 | 38.13546 | 15.52876 | 3426 ft | 97 kts | 304° |
| 2026-04-22 19:14 | 38.13881 | 15.52145 | 3625 ft | 96 kts | 304° |
| 2026-04-22 19:15 | 38.14106 | 15.51657 | 3760 ft | 95 kts | 304° |
| 2026-04-22 19:15 | 38.14526 | 15.50739 | 4016 ft | 94 kts | 304° |
| 2026-04-22 19:15 | 38.14879 | 15.49981 | 4014 ft | 104 kts | 304° |
| 2026-04-22 19:15 | 38.15257 | 15.49163 | 4006 ft | 108 kts | 303° |
| 2026-04-22 19:16 | 38.15633 | 15.48333 | 4003 ft | 110 kts | 303° |
| 2026-04-22 19:16 | 38.16024 | 15.47487 | 4003 ft | 110 kts | 303° |
| 2026-04-22 19:16 | 38.16360 | 15.46764 | 4002 ft | 110 kts | 302° |
| 2026-04-22 19:16 | 38.16732 | 15.45956 | 4006 ft | 109 kts | 301° |
| 2026-04-22 19:17 | 38.17119 | 15.45115 | 4002 ft | 109 kts | 300° |
| 2026-04-22 19:17 | 38.17505 | 15.44277 | 4001 ft | 109 kts | 302° |
| 2026-04-22 19:17 | 38.17888 | 15.43440 | 3964 ft | 112 kts | 302° |
| 2026-04-22 19:17 | 38.18290 | 15.42563 | 3891 ft | 116 kts | 303° |
| 2026-04-22 19:18 | 38.18700 | 15.41666 | 3818 ft | 120 kts | 303° |
| 2026-04-22 19:18 | 38.19124 | 15.40743 | 3746 ft | 122 kts | 303° |
| 2026-04-22 19:18 | 38.19556 | 15.39797 | 3672 ft | 124 kts | 303° |
| 2026-04-22 19:18 | 38.19983 | 15.38833 | 3598 ft | 124 kts | 301° |
| 2026-04-22 19:19 | 38.20237 | 15.38230 | 3553 ft | 124 kts | 301° |
| 2026-04-22 19:19 | 38.20589 | 15.37419 | 3492 ft | 125 kts | 302° |
| 2026-04-22 19:19 | 38.20869 | 15.36789 | 3443 ft | 125 kts | 303° |
| 2026-04-22 19:19 | 38.21308 | 15.35814 | 3370 ft | 126 kts | 303° |
| 2026-04-22 19:20 | 38.21743 | 15.34854 | 3296 ft | 126 kts | 302° |
| 2026-04-22 19:20 | 38.22185 | 15.33879 | 3220 ft | 126 kts | 303° |
| 2026-04-22 19:20 | 38.22634 | 15.32900 | 3146 ft | 126 kts | 303° |
| 2026-04-22 19:20 | 38.23077 | 15.31932 | 3068 ft | 126 kts | 303° |
| 2026-04-22 19:21 | 38.23515 | 15.30972 | 2994 ft | 126 kts | 303° |
| 2026-04-22 19:21 | 38.23963 | 15.29995 | 2918 ft | 127 kts | 303° |
| 2026-04-22 19:21 | 38.24406 | 15.29025 | 2844 ft | 127 kts | 303° |
| 2026-04-22 19:21 | 38.24845 | 15.28062 | 2769 ft | 126 kts | 303° |
| 2026-04-22 19:22 | 38.25289 | 15.27088 | 2693 ft | 126 kts | 302° |
| 2026-04-22 19:22 | 38.25732 | 15.26119 | 2619 ft | 126 kts | 302° |
| 2026-04-22 19:22 | 38.26174 | 15.25155 | 2543 ft | 126 kts | 303° |
| 2026-04-22 19:22 | 38.26613 | 15.24190 | 2509 ft | 123 kts | 302° |
| 2026-04-22 19:23 | 38.27021 | 15.23267 | 2514 ft | 119 kts | 300° |
| 2026-04-22 19:23 | 38.27394 | 15.22332 | 2514 ft | 118 kts | 299° |
| 2026-04-22 19:23 | 38.27760 | 15.21394 | 2515 ft | 116 kts | 298° |
| 2026-04-22 19:23 | 38.28117 | 15.20469 | 2516 ft | 117 kts | 298° |
| 2026-04-22 19:24 | 38.28480 | 15.19537 | 2514 ft | 117 kts | 299° |
| 2026-04-22 19:24 | 38.28841 | 15.18606 | 2516 ft | 116 kts | 299° |
| 2026-04-22 19:24 | 38.29202 | 15.17672 | 2517 ft | 117 kts | 299° |
| 2026-04-22 19:24 | 38.29561 | 15.16739 | 2514 ft | 116 kts | 299° |
| 2026-04-22 19:25 | 38.29887 | 15.15892 | 2516 ft | 117 kts | 299° |
| 2026-04-22 19:25 | 38.30232 | 15.14997 | 2516 ft | 117 kts | 299° |
| 2026-04-22 19:25 | 38.30594 | 15.14059 | 2515 ft | 117 kts | 299° |
| 2026-04-22 19:25 | 38.30954 | 15.13130 | 2516 ft | 117 kts | 299° |
| 2026-04-22 19:26 | 38.31313 | 15.12199 | 2515 ft | 117 kts | 299° |
| 2026-04-22 19:26 | 38.31675 | 15.11271 | 2516 ft | 117 kts | 300° |
| 2026-04-22 19:26 | 38.32038 | 15.10341 | 2514 ft | 117 kts | 299° |
| 2026-04-22 19:26 | 38.32399 | 15.09409 | 2514 ft | 117 kts | 299° |
| 2026-04-22 19:27 | 38.32740 | 15.08531 | 2514 ft | 117 kts | 299° |
| 2026-04-22 19:27 | 38.33104 | 15.07600 | 2513 ft | 117 kts | 299° |
| 2026-04-22 19:27 | 38.33414 | 15.06799 | 2513 ft | 117 kts | 299° |
| 2026-04-22 19:27 | 38.33753 | 15.05923 | 2512 ft | 117 kts | 299° |
| 2026-04-22 19:28 | 38.34110 | 15.04990 | 2512 ft | 117 kts | 299° |
| 2026-04-22 19:28 | 38.34468 | 15.04053 | 2512 ft | 117 kts | 299° |
| 2026-04-22 19:28 | 38.34830 | 15.03115 | 2512 ft | 117 kts | 299° |
| 2026-04-22 19:28 | 38.35187 | 15.02190 | 2511 ft | 117 kts | 299° |
| 2026-04-22 19:29 | 38.35548 | 15.01252 | 2514 ft | 117 kts | 298° |
| 2026-04-22 19:29 | 38.35910 | 15.00314 | 2512 ft | 117 kts | 298° |
| 2026-04-22 19:29 | 38.36290 | 14.99405 | 2509 ft | 116 kts | 311° |
| 2026-04-22 19:29 | 38.36925 | 14.98806 | 2512 ft | 113 kts | 333° |
| 2026-04-22 19:30 | 38.37391 | 14.98487 | 2513 ft | 112 kts | 335° |
| 2026-04-22 19:30 | 38.38328 | 14.97896 | 2512 ft | 113 kts | 338° |
| 2026-04-22 19:30 | 38.38996 | 14.97500 | 2514 ft | 113 kts | 338° |
| 2026-04-22 19:30 | 38.39717 | 14.97087 | 2515 ft | 113 kts | 339° |
| 2026-04-22 19:31 | 38.40426 | 14.96685 | 2515 ft | 112 kts | 339° |
| 2026-04-22 19:31 | 38.41140 | 14.96285 | 2515 ft | 112 kts | 339° |
| 2026-04-22 19:31 | 38.41890 | 14.96074 | 2515 ft | 110 kts | 356° |
| 2026-04-22 19:31 | 38.42662 | 14.95992 | 2516 ft | 111 kts | 358° |
| 2026-04-22 19:32 | 38.43433 | 14.95915 | 2515 ft | 111 kts | 358° |
| 2026-04-22 19:32 | 38.44195 | 14.95851 | 2515 ft | 110 kts | 359° |
| 2026-04-22 19:32 | 38.44961 | 14.95795 | 2515 ft | 110 kts | 359° |
| 2026-04-22 19:32 | 38.45725 | 14.95744 | 2516 ft | 110 kts | 359° |
| 2026-04-22 19:33 | 38.46474 | 14.95518 | 2512 ft | 113 kts | 329° |
| 2026-04-22 19:33 | 38.46934 | 14.94701 | 2516 ft | 116 kts | 295° |
| 2026-04-22 19:33 | 38.47183 | 14.93725 | 2515 ft | 116 kts | 288° |
| 2026-04-22 19:33 | 38.47378 | 14.92714 | 2515 ft | 117 kts | 285° |
| 2026-04-22 19:34 | 38.47545 | 14.91707 | 2515 ft | 117 kts | 284° |
| 2026-04-22 19:34 | 38.47848 | 14.90769 | 2533 ft | 112 kts | 316° |
| 2026-04-22 19:34 | 38.48473 | 14.90257 | 2654 ft | 102 kts | 338° |
| 2026-04-22 19:34 | 38.49103 | 14.89915 | 2774 ft | 96 kts | 342° |
| 2026-04-22 19:35 | 38.49715 | 14.89621 | 2896 ft | 92 kts | 343° |
| 2026-04-22 19:35 | 38.50163 | 14.89418 | 2989 ft | 89 kts | 344° |
| 2026-04-22 19:35 | 38.50728 | 14.89174 | 3108 ft | 87 kts | 345° |
| 2026-04-22 19:35 | 38.51292 | 14.88944 | 3230 ft | 85 kts | 346° |
| 2026-04-22 19:36 | 38.51856 | 14.88721 | 3355 ft | 83 kts | 346° |
| 2026-04-22 19:36 | 38.52401 | 14.88510 | 3477 ft | 82 kts | 346° |
| 2026-04-22 19:36 | 38.52945 | 14.88304 | 3605 ft | 80 kts | 346° |
| 2026-04-22 19:36 | 38.53485 | 14.88106 | 3728 ft | 79 kts | 346° |
| 2026-04-22 19:37 | 38.54039 | 14.87903 | 3750 ft | 91 kts | 346° |
| 2026-04-22 19:37 | 38.54683 | 14.87678 | 3743 ft | 99 kts | 346° |
| 2026-04-22 19:37 | 38.55198 | 14.87442 | 3738 ft | 104 kts | 330° |
| 2026-04-22 19:37 | 38.55677 | 14.86719 | 3740 ft | 109 kts | 304° |
| 2026-04-22 19:38 | 38.56043 | 14.85861 | 3739 ft | 111 kts | 300° |
| 2026-04-22 19:38 | 38.56392 | 14.84965 | 3739 ft | 113 kts | 298° |
| 2026-04-22 19:38 | 38.56720 | 14.84070 | 3741 ft | 114 kts | 297° |
| 2026-04-22 19:38 | 38.57050 | 14.83151 | 3739 ft | 114 kts | 297° |
| 2026-04-22 19:39 | 38.57378 | 14.82212 | 3739 ft | 114 kts | 296° |
| 2026-04-22 19:39 | 38.57673 | 14.81273 | 3736 ft | 115 kts | 284° |
| 2026-04-22 19:39 | 38.57713 | 14.80238 | 3738 ft | 117 kts | 271° |
| 2026-04-22 19:39 | 38.57696 | 14.79541 | 3739 ft | 119 kts | 270° |
| 2026-04-22 19:40 | 38.57633 | 14.78118 | 3740 ft | 121 kts | 269° |
| 2026-04-22 19:40 | 38.57574 | 14.77025 | 3739 ft | 122 kts | 268° |
| 2026-04-22 19:40 | 38.57513 | 14.75981 | 3737 ft | 123 kts | 267° |
| 2026-04-22 19:40 | 38.57444 | 14.74890 | 3739 ft | 123 kts | 267° |
| 2026-04-22 19:41 | 38.57373 | 14.73783 | 3738 ft | 123 kts | 267° |
| 2026-04-22 19:41 | 38.57300 | 14.72700 | 3739 ft | 123 kts | 267° |
| 2026-04-22 19:41 | 38.57225 | 14.71606 | 3738 ft | 123 kts | 267° |
| 2026-04-22 19:41 | 38.57143 | 14.70517 | 3738 ft | 123 kts | 266° |
| 2026-04-22 19:42 | 38.57064 | 14.69425 | 3738 ft | 123 kts | 267° |
| 2026-04-22 19:42 | 38.56985 | 14.68327 | 3738 ft | 123 kts | 267° |
| 2026-04-22 19:42 | 38.56906 | 14.67246 | 3738 ft | 123 kts | 267° |
| 2026-04-22 19:42 | 38.56826 | 14.66152 | 3738 ft | 123 kts | 267° |
| 2026-04-22 19:43 | 38.56665 | 14.63957 | 3738 ft | 123 kts | 267° |
| 2026-04-22 19:43 | 38.56586 | 14.62864 | 3739 ft | 123 kts | 267° |
| 2026-04-22 19:43 | 38.56507 | 14.61767 | 3738 ft | 123 kts | 266° |
| 2026-04-22 19:44 | 38.56431 | 14.60769 | 3739 ft | 123 kts | 267° |
| 2026-04-22 19:44 | 38.56353 | 14.59708 | 3739 ft | 123 kts | 267° |
| 2026-04-22 19:44 | 38.56267 | 14.58616 | 3737 ft | 123 kts | 265° |
| 2026-04-22 19:44 | 38.56142 | 14.57520 | 3738 ft | 123 kts | 263° |
| 2026-04-22 19:45 | 38.56010 | 14.56443 | 3739 ft | 123 kts | 263° |
| 2026-04-22 19:45 | 38.55871 | 14.55345 | 3738 ft | 123 kts | 263° |
| 2026-04-22 19:45 | 38.55736 | 14.54265 | 3738 ft | 123 kts | 263° |
| 2026-04-22 19:45 | 38.55597 | 14.53179 | 3738 ft | 123 kts | 263° |
| 2026-04-22 19:46 | 38.55458 | 14.52096 | 3738 ft | 123 kts | 263° |
| 2026-04-22 19:46 | 38.55322 | 14.51016 | 3739 ft | 123 kts | 263° |
| 2026-04-22 19:46 | 38.55289 | 14.50759 | 3738 ft | 123 kts | 263° |